Hovedside
METAR-TAF:

METAR-TAF

Lufthavner :

Tromsø, Norge

Tromsø lufthavn

breddegrad: 69-41N, lengdegrad: 018-55E, høyde over havet: 1 m

Gjeldene værobservasjon

Denne rapporten ble laget for 15 minutter siden, klokken 10:20 UTC
Vind 3 kt fra Vest
Temperatur 11°C
Luftfuktighet 76%
Trykk 995 hPa
Sikt 10 km eller mer
Få skyer i en høyde av 1000 ft
Brutte skyer i en høyde av 4200 ft
lette regnbyger

METAR: ENTC 251020Z 28003KT 9999 -SHRA FEW010 BKN042 11/07 Q0995 TEMPO BKN012 RMK WIND 2600FT 15005KT

Tid: 12:35 (10:35 UTC)


TAF: fraværende

Værobservasjoner og værvarsel for over 4000 flyplasser (METAR- og TAF-rapporter).

Tilgjengelige stasjoner er representert av de røde og gule prikkene på kartet.

Hold musepekeren over prikken for å se navnet på stasjonen.

Klikk så for å se værobservasjoner og -varsler.

For å forandre kartet kan du klikke på den grønne knappen med svart kryss for å zoome inn, på den grønne knappen med strek for å zoome ut, eller på de grønne pilene for å se tilstøtende kart.


METAR-TAF: